Latest Weather Observations for Minlaton Airport

IDS60801

Issued at 1:05 pm CST Monday 15 September 2014 (issued every 30 minutes, with the page automatically refreshed every 10 minutes)

About weather observations | Map of weather stations | Latest weather observations for SA | Other Formats
Station Details ID: 022031 Name: MINLATON AERO Lat: -34.75 Lon: 137.53 Height: 32.0 m
Data from the previous 72 hours. | See also: Recent months at Minlaton Airport
Date/Time
CST
Temp
°C
App
Temp
°C
Dew
Point
Rel
Hum
%
Delta-T
°C
Wind Press
QNH
hPa
Press
MSL
hPa
Rain
since 9 am
mm
Dir
 
Spd
km/h
Gust
km/h
Spd
kts
Gust
kts
15/01:00pm 17.5 10.9 9.9 61 4.0 SW 35 46 19 25 1014.3 1014.3 0.0
15/12:45pm 18.4 12.5 10.5 60 4.2 SW 32 50 17 27 1014.1 1014.1 0.0
15/12:30pm 17.7 10.8 10.3 62 3.9 SSW 37 52 20 28 1014.0 1014.0 0.0
15/12:01pm 18.4 11.8 10.0 58 4.5 SSW 35 56 19 30 1013.8 1013.8 0.0
15/12:00pm 18.6 12.4 9.9 57 4.6 SSW 33 50 18 27 1013.8 1013.8 0.0
15/11:31am 18.5 11.4 10.8 61 4.2 SSW 39 57 21 31 1013.7 1013.7 0.0
15/11:30am 18.5 11.7 10.8 61 4.2 SSW 37 54 20 29 1013.7 1013.7 0.0
15/11:00am 19.0 11.9 10.8 59 4.4 SSW 39 57 21 31 1013.3 1013.3 0.0
15/10:30am 17.2 9.7 10.8 66 3.4 SW 41 59 22 32 1013.0 1013.0 0.0
15/10:01am 17.0 9.8 10.6 66 3.4 SW 39 57 21 31 1013.0 1013.0 0.0
15/10:00am 17.1 9.6 10.9 67 3.3 SW 41 57 22 31 1013.0 1013.0 0.0
15/09:30am 16.0 9.0 11.2 73 2.6 SW 39 56 21 30 1012.6 1012.6 0.0
15/09:22am 16.1 9.8 11.1 72 2.7 SW 35 56 19 30 1012.4 1012.4 0.0
15/09:00am 15.2 8.9 11.2 77 2.1 SW 35 48 19 26 1012.1 1012.1 0.0
15/08:30am 14.9 8.3 11.3 79 1.9 SW 37 52 20 28 1011.8 1011.8 0.0
15/08:00am 14.6 8.5 11.6 82 1.6 WSW 35 46 19 25 1011.4 1011.4 0.0
15/07:30am 14.3 8.5 11.6 84 1.4 WSW 33 41 18 22 1010.9 1010.9 0.0
15/07:00am 14.3 9.2 12.0 86 1.2 WSW 30 41 16 22 1010.6 1010.6 0.0
15/06:30am 14.2 9.9 12.2 88 1.1 WSW 26 35 14 19 1010.1 1010.1 0.0
15/06:00am 14.1 9.9 12.5 90 0.9 W 26 39 14 21 1009.9 1009.9 0.0
15/05:30am 14.1 9.8 12.0 87 1.1 WSW 26 35 14 19 1009.7 1009.7 0.0
15/05:00am 14.4 10.0 12.8 90 0.9 W 28 39 15 21 1009.6 1009.6 0.0
15/04:30am 14.3 10.0 12.2 87 1.1 NW 26 35 14 19 1009.6 1009.6 0.0
15/04:00am 14.1 10.2 12.0 87 1.1 NW 24 32 13 17 1009.5 1009.5 0.0
15/03:30am 14.2 10.2 11.9 86 1.2 NW 24 35 13 19 1009.6 1009.6 0.0
15/03:00am 14.1 10.8 11.6 85 1.3 NNW 20 33 11 18 1009.9 1009.9 0.0
15/02:30am 14.0 10.7 11.5 85 1.3 NNW 20 26 11 14 1010.1 1010.1 0.0
15/02:00am 14.0 10.6 11.2 83 1.5 NNW 20 28 11 15 1010.5 1010.5 0.0
15/01:30am 13.9 10.6 10.9 82 1.6 NNW 19 26 10 14 1010.8 1010.8 0.0
15/01:00am 13.3 10.8 11.2 87 1.1 N 15 20 8 11 1010.9 1010.9 0.0
15/12:30am 12.3 10.0 10.5 89 0.9 N 13 17 7 9 1010.9 1010.9 0.0
15/12:00am 13.0 10.4 10.7 86 1.2 N 15 19 8 10 1011.3 1011.3 0.0
 
Date/Time
CST
Temp
°C
App
Temp
°C
Dew
Point
Rel
Hum
%
Delta-T
°C
Wind Press
QNH
hPa
Press
MSL
hPa
Rain
since 9 am
mm
Dir
 
Spd
km/h
Gust
km/h
Spd
kts
Gust
kts
14/11:30pm 13.3 10.7 10.8 85 1.3 NNW 15 20 8 11 1011.6 1011.6 0.0
14/11:00pm 13.3 8.3 9.5 78 1.9 WNW 26 37 14 20 1012.2 1012.2 0.0
14/10:30pm 14.1 9.6 11.4 84 1.4 WNW 26 33 14 18 1012.4 1012.4 0.0
14/10:00pm 13.8 10.4 12.4 91 0.8 WNW 22 32 12 17 1012.7 1012.7 0.0
14/09:30pm 14.0 10.6 12.6 91 0.8 WNW 22 30 12 16 1012.5 1012.5 0.0
14/09:00pm 14.6 10.8 12.3 86 1.3 WNW 24 33 13 18 1012.4 1012.4 0.0
14/08:30pm 14.8 11.5 11.6 81 1.7 W 20 26 11 14 1012.2 1012.2 0.0
14/08:00pm 15.8 13.0 10.1 69 3.0 NW 15 20 8 11 1012.0 1012.0 0.0
14/07:30pm 17.7 14.8 9.6 59 4.3 WNW 15 20 8 11 1011.8 1011.8 0.0
14/07:00pm 20.6 15.5 6.2 39 7.2 NNW 22 33 12 18 1011.5 1011.5 0.0
14/06:47pm 21.1 14.4 5.5 36 7.8 NW 30 63 16 34 1011.2 1011.2 0.0
14/06:30pm 20.9 15.5 6.4 39 7.3 NE 24 32 13 17 1010.0 1010.0 0.0
14/06:00pm 21.8 16.1 6.5 37 7.8 NE 26 32 14 17 1010.0 1010.0 0.0
14/05:30pm 22.9 17.3 7.0 36 8.2 NE 26 32 14 17 1010.2 1010.2 0.0
14/05:00pm 24.3 18.5 6.1 31 9.3 NNE 26 33 14 18 1010.4 1010.4 0.0
14/04:30pm 24.9 20.2 9.2 37 8.5 NNE 24 41 13 22 1010.9 1010.9 0.0
14/04:00pm 24.4 19.1 8.4 36 8.6 ENE 26 32 14 17 1011.3 1011.3 0.0
14/03:30pm 24.2 18.6 8.6 37 8.4 E 28 35 15 19 1011.8 1011.8 0.0
14/03:00pm 25.5 20.4 9.3 36 8.9 E 26 35 14 19 1011.8 1011.8 0.0
14/02:30pm 25.4 20.5 10.1 38 8.5 ENE 26 37 14 20 1012.3 1012.3 0.0
14/02:00pm 24.7 20.1 9.8 39 8.2 ENE 24 33 13 18 1012.9 1012.9 0.0
14/01:30pm 24.8 20.5 10.7 41 7.9 ENE 24 33 13 18 1013.6 1013.6 0.0
14/01:00pm 25.0 20.8 9.7 38 8.4 NE 22 32 12 17 1014.2 1014.2 0.0
14/12:30pm 24.3 20.4 9.5 39 8.1 NE 20 32 11 17 1015.1 1015.1 0.0
14/12:00pm 23.1 19.4 9.5 42 7.4 NE 19 26 10 14 1015.8 1015.8 0.0
14/11:30am 22.8 19.8 10.6 46 6.7 ENE 17 24 9 13 1016.5 1016.5 0.0
14/11:00am 20.9 17.2 9.5 48 6.1 E 19 26 10 14 1017.2 1017.2 0.0
14/10:30am 18.7 14.4 9.2 54 5.0 E 22 28 12 15 1017.5 1017.5 0.0
14/10:00am 19.1 15.1 10.6 58 4.6 E 22 30 12 16 1017.9 1017.9 0.0
14/09:30am 17.2 12.2 9.6 61 4.0 E 26 33 14 18 1017.8 1017.8 0.0
14/09:00am 16.6 12.0 9.8 64 3.6 E 24 32 13 17 1018.4 1018.4 0.2
14/08:30am 14.6 10.8 11.2 80 1.8 E 22 28 12 15 1018.5 1018.5 0.2
14/08:00am 13.5 9.2 10.7 83 1.5 E 24 32 13 17 1018.1 1018.1 0.2
14/07:30am 12.2 7.5 10.8 91 0.7 E 26 30 14 16 1017.7 1017.7 0.2
14/07:00am 11.3 6.8 10.2 93 0.6 E 24 30 13 16 1017.5 1017.5 0.2
14/06:30am 10.3 5.6 9.4 94 0.4 ESE 24 32 13 17 1017.7 1017.7 0.2
14/06:00am 9.9 7.2 9.1 95 0.4 ESE 13 20 7 11 1018.0 1018.0 0.2
14/05:30am 10.0 6.6 9.2 95 0.4 ESE 17 20 9 11 1018.2 1018.2 0.2
14/05:00am 10.0 6.2 9.2 95 0.4 E 19 24 10 13 1017.8 1017.8 0.2
14/04:30am 10.1 6.3 9.2 94 0.4 ESE 19 22 10 12 1017.8 1017.8 0.2
14/04:00am 10.3 6.0 9.4 94 0.4 ESE 22 26 12 14 1017.5 1017.5 0.2
14/03:30am 9.9 6.5 9.1 95 0.4 SE 17 20 9 11 1017.9 1017.9 0.2
14/03:00am 9.3 5.7 8.5 95 0.4 SSE 17 19 9 10 1018.2 1018.2 0.2
14/02:30am 7.7 4.8 6.3 91 0.6 SSE 11 15 6 8 1018.6 1018.6 0.2
14/02:00am 8.5 4.6 7.0 90 0.7 E 17 19 9 10 1018.9 1018.9 0.2
14/01:30am 8.6 4.7 7.1 90 0.7 ESE 17 17 9 9 1019.1 1019.1 0.2
14/01:00am 8.9 4.6 7.7 92 0.6 E 20 24 11 13 1019.0 1019.0 0.2
14/12:30am 8.3 3.8 7.1 92 0.6 E 20 22 11 12 1019.5 1019.5 0.2
14/12:00am 8.2 3.7 6.8 91 0.6 E 20 22 11 12 1020.2 1020.2 0.2
 
Date/Time
CST
Temp
°C
App
Temp
°C
Dew
Point
Rel
Hum
%
Delta-T
°C
Wind Press
QNH
hPa
Press
MSL
hPa
Rain
since 9 am
mm
Dir
 
Spd
km/h
Gust
km/h
Spd
kts
Gust
kts
13/11:30pm 8.3 3.8 7.1 92 0.6 E 20 22 11 12 1020.4 1020.4 0.2
13/11:00pm 8.7 4.5 7.6 93 0.5 E 19 20 10 11 1021.0 1021.0 0.2
13/10:30pm 9.1 5.0 8.0 93 0.5 E 19 20 10 11 1021.2 1021.2 0.2
13/10:00pm 9.0 5.0 8.1 94 0.4 E 19 20 10 11 1021.4 1021.4 0.2
13/09:30pm 9.1 5.4 8.0 93 0.5 E 17 19 9 10 1021.4 1021.4 0.2
13/09:00pm 9.5 5.9 8.3 92 0.6 E 17 20 9 11 1021.4 1021.4 0.2
13/08:30pm 10.1 6.1 8.9 92 0.6 E 20 22 11 12 1021.0 1021.0 0.2
13/08:00pm 10.0 6.0 8.4 90 0.8 E 19 20 10 11 1021.0 1021.0 0.2
13/07:30pm 10.4 6.5 8.5 88 0.9 E 19 20 10 11 1021.0 1021.0 0.2
13/07:00pm 10.3 7.9 7.2 81 1.5 SE 9 11 5 6 1020.9 1020.9 0.2
13/06:30pm 11.8 9.2 7.9 77 1.9 SSE 11 19 6 10 1020.7 1020.7 0.2
13/06:00pm 14.7 13.2 9.3 70 2.8 SSE 7 7 4 4 1020.7 1020.7 0.2
13/05:30pm 17.1 15.3 9.5 61 4.0 SW 9 11 5 6 1020.7 1020.7 0.2
13/05:00pm 18.6 16.4 8.0 50 5.4 WSW 9 11 5 6 1020.4 1020.4 0.2
13/04:30pm 19.4 16.7 7.5 46 6.1 W 11 13 6 7 1020.4 1020.4 0.2
13/04:00pm 20.3 18.3 6.3 40 7.0 WNW 6 11 3 6 1020.1 1020.1 0.2
13/03:30pm 20.1 17.4 5.7 39 7.1 W 9 13 5 7 1020.1 1020.1 0.2
13/03:00pm 19.7 16.6 7.4 45 6.3 W 13 15 7 8 1020.5 1020.5 0.2
13/02:30pm 19.7 16.6 7.4 45 6.3 WNW 13 17 7 9 1020.7 1020.7 0.2
13/02:00pm 20.0 16.9 8.7 48 5.9 NW 15 20 8 11 1020.8 1020.8 0.2
13/01:30pm 19.4 15.7 8.1 48 5.8 NW 17 24 9 13 1021.3 1021.3 0.2
13/01:00pm 19.4 15.1 7.2 45 6.2 NNW 19 26 10 14 1021.8 1021.8 0.2
13/12:30pm 19.3 15.0 6.8 44 6.3 NW 19 26 10 14 1022.2 1022.2 0.2
13/12:00pm 19.4 15.4 6.8 44 6.3 NNW 17 24 9 13 1022.5 1022.5 0.2
13/11:30am 19.1 15.8 8.1 49 5.6 NW 15 24 8 13 1022.9 1022.9 0.2
13/11:00am 19.4 16.1 8.1 48 5.8 NW 15 20 8 11 1023.0 1023.0 0.0
13/10:30am 18.5 15.6 6.4 45 6.0 NNW 11 19 6 10 1023.3 1023.3 0.0
13/10:00am 17.7 15.3 7.2 50 5.3 N 9 13 5 7 1023.7 1023.7 0.0
13/09:30am 16.6 14.8 9.3 62 3.8 N 9 13 5 7 1024.1 1024.1 0.0
13/09:00am 14.8 12.1 9.0 68 2.9 NE 13 17 7 9 1024.2 1024.2 0.0
13/08:30am 12.7 9.7 9.2 79 1.8 ENE 15 19 8 10 1024.2 1024.2 0.0
13/08:00am 10.5 6.6 8.6 88 0.9 ENE 19 22 10 12 1024.1 1024.1 0.0
13/07:30am 8.7 4.3 7.5 92 0.6 ENE 20 24 11 13 1024.2 1024.2 0.0
13/07:00am 7.3 2.7 6.6 95 0.3 E 20 22 11 12 1024.0 1024.0 0.0
13/06:30am 6.2 1.4 5.5 95 0.3 E 20 22 11 12 1023.9 1023.9 0.0
13/06:00am 6.4 1.6 5.7 95 0.3 E 20 24 11 13 1023.7 1023.7 0.0
13/05:30am 6.6 1.9 5.9 95 0.3 E 20 24 11 13 1023.6 1023.6 0.0
13/05:00am 6.7 2.0 6.1 96 0.3 E 20 24 11 13 1023.5 1023.5 0.0
13/04:30am 6.2 1.4 5.6 96 0.3 E 20 22 11 12 1023.6 1023.6 0.0
13/04:00am 6.4 1.8 5.8 96 0.3 E 19 22 10 12 1023.8 1023.8 0.0
13/03:30am 6.2 2.0 5.6 96 0.3 ESE 17 19 9 10 1024.1 1024.1 0.0
13/03:00am 5.3 0.9 4.7 96 0.3 ESE 17 19 9 10 1024.3 1024.3 0.0
13/02:30am 4.6 0.8 4.0 96 0.3 ESE 13 15 7 8 1024.5 1024.5 0.0
13/02:00am 5.0 0.9 4.4 96 0.3 ESE 15 17 8 9 1024.8 1024.8 0.0
13/01:30am 5.1 1.4 4.4 95 0.3 ESE 13 13 7 7 1025.3 1025.3 0.0
13/01:00am 5.2 1.1 4.5 95 0.3 ESE 15 15 8 8 1025.5 1025.5 0.0
13/12:30am 5.4 1.4 4.7 95 0.3 ESE 15 17 8 9 1025.6 1025.6 0.0
13/12:00am 5.6 1.2 4.9 95 0.3 E 17 17 9 9 1025.5 1025.5 0.0
 
Date/Time
CST
Temp
°C
App
Temp
°C
Dew
Point
Rel
Hum
%
Delta-T
°C
Wind Press
QNH
hPa
Press
MSL
hPa
Rain
since 9 am
mm
Dir
 
Spd
km/h
Gust
km/h
Spd
kts
Gust
kts
12/11:30pm 5.5 1.1 4.6 94 0.4 E 17 19 9 10 1025.6 1025.6 0.0
12/11:00pm 5.5 1.1 4.6 94 0.4 ESE 17 17 9 9 1025.9 1025.9 0.0
12/10:30pm 5.9 1.5 5.0 94 0.4 ESE 17 17 9 9 1026.1 1026.1 0.0
12/10:00pm 5.8 1.4 4.8 93 0.4 E 17 17 9 9 1026.2 1026.2 0.0
12/09:30pm 6.1 1.8 5.1 93 0.4 E 17 17 9 9 1026.2 1026.2 0.0
12/09:00pm 6.5 2.2 5.3 92 0.5 ESE 17 17 9 9 1026.3 1026.3 0.0
12/08:30pm 6.5 2.5 5.1 91 0.6 ESE 15 17 8 9 1026.4 1026.4 0.0
12/08:00pm 6.8 2.9 5.3 90 0.7 ESE 15 17 8 9 1026.4 1026.4 0.0
12/07:30pm 7.5 3.4 6.0 90 0.7 ESE 17 17 9 9 1026.4 1026.4 0.0
12/07:00pm 8.3 4.2 6.3 87 0.9 SE 17 17 9 9 1026.3 1026.3 0.0
12/06:30pm 10.1 6.6 7.2 82 1.4 SSE 15 17 8 9 1026.1 1026.1 0.0
12/06:00pm 12.7 10.6 8.2 74 2.2 S 9 13 5 7 1026.2 1026.2 0.0
12/05:30pm 13.6 10.5 7.4 66 3.0 SSE 13 15 7 8 1026.0 1026.0 0.0
12/05:00pm 14.6 12.0 7.6 63 3.5 SSE 11 13 6 7 1025.8 1025.8 0.0
12/04:30pm 14.6 11.2 7.6 63 3.4 SE 15 19 8 10 1025.7 1025.7 0.0
12/04:00pm 15.2 11.8 7.7 61 3.7 SW 15 24 8 13 1025.6 1025.6 0.0
12/03:30pm 15.4 10.9 6.9 57 4.1 SW 20 28 11 15 1025.7 1025.7 0.0
12/03:00pm 15.8 11.6 7.3 57 4.2 SW 19 22 10 12 1025.7 1025.7 0.0
12/02:30pm 16.8 13.1 8.0 56 4.4 S 17 30 9 16 1025.9 1025.9 0.0
12/02:00pm 16.9 13.8 5.5 47 5.5 SW 11 24 6 13 1026.2 1026.2 0.0
12/01:30pm 17.7 13.4 6.9 49 5.4 W 19 26 10 14 1026.4 1026.4 0.0

Other Formats:

Comma delimited format used in spreadsheet applications
http://www.bom.gov.au/fwo/IDS60801/IDS60801.95659.axf

JavaScript Object Notation format (JSON) in row-major order
http://www.bom.gov.au/fwo/IDS60801/IDS60801.95659.json